Rouyn, Canada
Current Conditions -  °F | °C
As of 10:00 PM on Saturday 25 Oct 2014 (Local Time) from CYUY Reporting Station
Rain Showers Rain Showers  
Wind Chill: 35°   Ceiling: 1300
Heat Index: 41°   Visibility: 10mi
Dew Point: 39°   Wind: 10mph
Humidity: 93%   Direction: 280°W
Pressure: 29.41"   Gusts: NA
Location:  48.23°N, 79.03°W
Report Text: CYUY 260200Z 28009KT 10SM -SHRA OVC013 05/04 A2941 RMK SC8 SLP969
Loading
Personal Weather Stations






























Interactive Weather Map
Tropical Storm Tracking
New forecast layout! Learn more

10-Day Weather Forecast

Advertisements
Track Severe Weather on mobile